sensor_id;sensor_type;location;lat;lon;timestamp;pressure;altitude;pressure_sealevel;temperature;humidity
58223;BME280;44020;50.890;15.796;2023-09-30T00:01:58;97901.60;;;17.44;97.41
58223;BME280;44020;50.890;15.796;2023-09-30T00:04:26;97905.66;;;17.44;97.44
58223;BME280;44020;50.890;15.796;2023-09-30T00:06:54;97905.92;;;17.42;97.60
58223;BME280;44020;50.890;15.796;2023-09-30T00:09:21;97913.66;;;17.42;97.62
58223;BME280;44020;50.890;15.796;2023-09-30T00:11:49;97914.03;;;17.40;97.70
58223;BME280;44020;50.890;15.796;2023-09-30T00:14:16;97911.48;;;17.40;97.73
58223;BME280;44020;50.890;15.796;2023-09-30T00:16:44;97914.38;;;17.40;97.65
58223;BME280;44020;50.890;15.796;2023-09-30T00:19:11;97919.25;;;17.40;97.81
58223;BME280;44020;50.890;15.796;2023-09-30T00:21:38;97925.16;;;17.38;97.95
58223;BME280;44020;50.890;15.796;2023-09-30T00:24:05;97923.60;;;17.38;97.98
58223;BME280;44020;50.890;15.796;2023-09-30T00:26:33;97925.61;;;17.37;98.12
58223;BME280;44020;50.890;15.796;2023-09-30T00:29:00;97927.50;;;17.38;98.21
58223;BME280;44020;50.890;15.796;2023-09-30T00:31:31;97924.28;;;17.38;98.20
58223;BME280;44020;50.890;15.796;2023-09-30T00:33:59;97927.38;;;17.35;98.42
58223;BME280;44020;50.890;15.796;2023-09-30T00:36:26;97926.83;;;17.34;98.55
58223;BME280;44020;50.890;15.796;2023-09-30T00:38:53;97928.73;;;17.31;98.68
58223;BME280;44020;50.890;15.796;2023-09-30T00:41:21;97931.53;;;17.27;99.03
58223;BME280;44020;50.890;15.796;2023-09-30T00:43:48;97930.86;;;17.27;99.10
58223;BME280;44020;50.890;15.796;2023-09-30T00:46:27;97935.05;;;17.26;99.31
58223;BME280;44020;50.890;15.796;2023-09-30T00:48:57;97936.50;;;17.26;99.42
58223;BME280;44020;50.890;15.796;2023-09-30T00:51:26;97939.86;;;17.26;99.57
58223;BME280;44020;50.890;15.796;2023-09-30T00:53:55;97941.12;;;17.27;99.74
58223;BME280;44020;50.890;15.796;2023-09-30T00:56:25;97940.92;;;17.27;99.87
58223;BME280;44020;50.890;15.796;2023-09-30T00:58:53;97945.40;;;17.27;99.94
58223;BME280;44020;50.890;15.796;2023-09-30T01:01:21;97946.59;;;17.26;100.00
58223;BME280;44020;50.890;15.796;2023-09-30T01:03:48;97948.27;;;17.25;100.00
58223;BME280;44020;50.890;15.796;2023-09-30T01:06:16;97949.24;;;17.26;100.00
58223;BME280;44020;50.890;15.796;2023-09-30T01:08:43;97949.01;;;17.27;100.00
58223;BME280;44020;50.890;15.796;2023-09-30T01:11:12;97954.39;;;17.27;100.00
58223;BME280;44020;50.890;15.796;2023-09-30T01:13:40;97955.64;;;17.27;100.00
58223;BME280;44020;50.890;15.796;2023-09-30T01:16:09;97958.36;;;17.27;100.00
58223;BME280;44020;50.890;15.796;2023-09-30T01:18:38;97956.19;;;17.27;100.00
58223;BME280;44020;50.890;15.796;2023-09-30T01:21:07;97956.29;;;17.28;100.00
58223;BME280;44020;50.890;15.796;2023-09-30T01:23:35;97959.74;;;17.29;100.00
58223;BME280;44020;50.890;15.796;2023-09-30T01:26:10;97960.31;;;17.29;100.00
58223;BME280;44020;50.890;15.796;2023-09-30T01:28:39;97964.31;;;17.28;100.00
58223;BME280;44020;50.890;15.796;2023-09-30T01:31:07;97964.81;;;17.31;100.00
58223;BME280;44020;50.890;15.796;2023-09-30T01:33:34;97969.45;;;17.41;100.00
58223;BME280;44020;50.890;15.796;2023-09-30T01:36:02;97972.23;;;17.49;100.00
58223;BME280;44020;50.890;15.796;2023-09-30T01:38:30;97978.41;;;17.58;99.83
58223;BME280;44020;50.890;15.796;2023-09-30T01:40:57;97978.92;;;17.68;99.12
58223;BME280;44020;50.890;15.796;2023-09-30T01:43:24;97981.34;;;17.77;98.57
58223;BME280;44020;50.890;15.796;2023-09-30T01:45:52;97986.30;;;17.81;98.15
58223;BME280;44020;50.890;15.796;2023-09-30T01:48:19;97985.17;;;17.86;97.82
58223;BME280;44020;50.890;15.796;2023-09-30T01:50:46;97985.02;;;17.91;97.16
58223;BME280;44020;50.890;15.796;2023-09-30T01:53:14;97982.86;;;17.99;96.65
58223;BME280;44020;50.890;15.796;2023-09-30T01:55:42;97982.39;;;18.03;96.16
58223;BME280;44020;50.890;15.796;2023-09-30T01:58:09;97982.11;;;18.08;95.64
58223;BME280;44020;50.890;15.796;2023-09-30T02:00:51;97985.96;;;18.11;95.43
58223;BME280;44020;50.890;15.796;2023-09-30T02:03:19;97980.09;;;18.14;94.85
58223;BME280;44020;50.890;15.796;2023-09-30T02:05:46;97977.27;;;18.18;94.18
58223;BME280;44020;50.890;15.796;2023-09-30T02:08:13;97976.29;;;18.20;93.94
58223;BME280;44020;50.890;15.796;2023-09-30T02:10:41;97975.98;;;18.21;93.65
58223;BME280;44020;50.890;15.796;2023-09-30T02:13:08;97976.03;;;18.21;93.58
58223;BME280;44020;50.890;15.796;2023-09-30T02:15:40;97977.43;;;18.21;93.30
58223;BME280;44020;50.890;15.796;2023-09-30T02:18:08;97976.94;;;18.23;92.80
58223;BME280;44020;50.890;15.796;2023-09-30T02:20:36;97981.86;;;18.22;92.77
58223;BME280;44020;50.890;15.796;2023-09-30T02:23:10;97979.91;;;18.21;92.60
58223;BME280;44020;50.890;15.796;2023-09-30T02:25:38;97985.52;;;18.21;92.59
58223;BME280;44020;50.890;15.796;2023-09-30T02:28:06;97979.64;;;18.21;92.44
58223;BME280;44020;50.890;15.796;2023-09-30T02:30:33;97983.25;;;18.21;92.41
58223;BME280;44020;50.890;15.796;2023-09-30T02:33:01;97985.58;;;18.21;92.36
58223;BME280;44020;50.890;15.796;2023-09-30T02:35:30;97990.97;;;18.21;92.30
58223;BME280;44020;50.890;15.796;2023-09-30T02:37:59;97984.82;;;18.19;92.29
58223;BME280;44020;50.890;15.796;2023-09-30T02:40:29;97982.02;;;18.17;92.41
58223;BME280;44020;50.890;15.796;2023-09-30T02:42:56;97979.41;;;18.16;92.41
58223;BME280;44020;50.890;15.796;2023-09-30T02:45:23;97979.46;;;18.15;92.48
58223;BME280;44020;50.890;15.796;2023-09-30T02:47:50;97984.27;;;18.14;92.44
58223;BME280;44020;50.890;15.796;2023-09-30T02:50:18;97981.61;;;18.14;92.32
58223;BME280;44020;50.890;15.796;2023-09-30T02:52:45;97985.45;;;18.13;92.27
58223;BME280;44020;50.890;15.796;2023-09-30T02:55:12;97988.74;;;18.12;92.29
58223;BME280;44020;50.890;15.796;2023-09-30T02:57:40;97995.23;;;18.10;92.40
58223;BME280;44020;50.890;15.796;2023-09-30T03:00:08;97995.88;;;18.09;92.54
58223;BME280;44020;50.890;15.796;2023-09-30T03:02:53;97999.78;;;18.06;92.62
58223;BME280;44020;50.890;15.796;2023-09-30T03:05:22;98003.64;;;18.05;92.72
58223;BME280;44020;50.890;15.796;2023-09-30T03:07:50;98007.29;;;18.02;92.72
58223;BME280;44020;50.890;15.796;2023-09-30T03:10:17;98009.04;;;18.01;92.93
58223;BME280;44020;50.890;15.796;2023-09-30T03:12:51;98014.51;;;18.00;92.98
58223;BME280;44020;50.890;15.796;2023-09-30T03:15:19;98025.02;;;18.00;93.04
58223;BME280;44020;50.890;15.796;2023-09-30T03:17:46;98037.21;;;18.00;93.09
58223;BME280;44020;50.890;15.796;2023-09-30T03:20:14;98040.34;;;17.99;93.14
58223;BME280;44020;50.890;15.796;2023-09-30T03:22:46;98037.80;;;17.99;93.22
58223;BME280;44020;50.890;15.796;2023-09-30T03:25:17;98036.17;;;17.98;93.31
58223;BME280;44020;50.890;15.796;2023-09-30T03:27:45;98035.52;;;17.97;93.41
58223;BME280;44020;50.890;15.796;2023-09-30T03:30:16;98039.56;;;17.96;93.58
58223;BME280;44020;50.890;15.796;2023-09-30T03:32:44;98044.11;;;17.96;93.49
58223;BME280;44020;50.890;15.796;2023-09-30T03:35:12;98041.30;;;17.95;93.57
58223;BME280;44020;50.890;15.796;2023-09-30T03:37:46;98041.69;;;17.94;93.78
58223;BME280;44020;50.890;15.796;2023-09-30T03:40:14;98033.64;;;17.92;93.75
58223;BME280;44020;50.890;15.796;2023-09-30T03:42:48;98038.91;;;17.91;94.11
58223;BME280;44020;50.890;15.796;2023-09-30T03:45:19;98044.43;;;17.88;94.34
58223;BME280;44020;50.890;15.796;2023-09-30T03:47:46;98049.84;;;17.86;94.31
58223;BME280;44020;50.890;15.796;2023-09-30T03:50:15;98052.70;;;17.86;94.42
58223;BME280;44020;50.890;15.796;2023-09-30T03:52:43;98046.00;;;17.85;94.49
58223;BME280;44020;50.890;15.796;2023-09-30T03:55:11;98052.08;;;17.83;94.77
58223;BME280;44020;50.890;15.796;2023-09-30T03:57:39;98056.98;;;17.81;95.10
58223;BME280;44020;50.890;15.796;2023-09-30T04:00:06;98059.98;;;17.79;95.49
58223;BME280;44020;50.890;15.796;2023-09-30T04:02:34;98064.02;;;17.76;95.59
58223;BME280;44020;50.890;15.796;2023-09-30T04:05:01;98063.04;;;17.73;95.62
58223;BME280;44020;50.890;15.796;2023-09-30T04:07:32;98064.96;;;17.72;95.70
58223;BME280;44020;50.890;15.796;2023-09-30T04:09:59;98067.55;;;17.74;95.68
58223;BME280;44020;50.890;15.796;2023-09-30T04:12:28;98071.27;;;17.74;95.62
58223;BME280;44020;50.890;15.796;2023-09-30T04:14:55;98067.52;;;17.74;95.82
58223;BME280;44020;50.890;15.796;2023-09-30T04:17:22;98068.14;;;17.71;96.06
58223;BME280;44020;50.890;15.796;2023-09-30T04:19:49;98070.57;;;17.70;96.10
58223;BME280;44020;50.890;15.796;2023-09-30T04:22:19;98073.98;;;17.66;96.54
58223;BME280;44020;50.890;15.796;2023-09-30T04:24:48;98077.49;;;17.63;96.65
58223;BME280;44020;50.890;15.796;2023-09-30T04:27:18;98077.98;;;17.62;96.66
58223;BME280;44020;50.890;15.796;2023-09-30T04:29:45;98078.23;;;17.61;96.79
58223;BME280;44020;50.890;15.796;2023-09-30T04:32:13;98073.36;;;17.59;97.13
58223;BME280;44020;50.890;15.796;2023-09-30T04:34:40;98080.04;;;17.57;97.31
58223;BME280;44020;50.890;15.796;2023-09-30T04:37:07;98082.80;;;17.54;97.59
58223;BME280;44020;50.890;15.796;2023-09-30T04:39:36;98085.88;;;17.52;97.71
58223;BME280;44020;50.890;15.796;2023-09-30T04:42:03;98092.73;;;17.52;97.70
58223;BME280;44020;50.890;15.796;2023-09-30T04:44:31;98093.14;;;17.51;97.89
58223;BME280;44020;50.890;15.796;2023-09-30T04:46:58;98096.91;;;17.51;97.87
58223;BME280;44020;50.890;15.796;2023-09-30T04:49:26;98099.77;;;17.51;98.07
58223;BME280;44020;50.890;15.796;2023-09-30T04:51:53;98105.60;;;17.53;98.58
58223;BME280;44020;50.890;15.796;2023-09-30T04:54:21;98115.64;;;17.47;99.97
58223;BME280;44020;50.890;15.796;2023-09-30T04:56:48;98122.48;;;17.37;100.00
58223;BME280;44020;50.890;15.796;2023-09-30T04:59:17;98126.48;;;17.28;100.00
58223;BME280;44020;50.890;15.796;2023-09-30T05:01:45;98140.97;;;17.13;100.00
58223;BME280;44020;50.890;15.796;2023-09-30T05:04:12;98142.69;;;17.00;100.00
58223;BME280;44020;50.890;15.796;2023-09-30T05:06:39;98154.08;;;16.87;100.00
58223;BME280;44020;50.890;15.796;2023-09-30T05:09:07;98166.35;;;16.74;100.00
58223;BME280;44020;50.890;15.796;2023-09-30T05:11:43;98168.98;;;16.64;100.00
58223;BME280;44020;50.890;15.796;2023-09-30T05:14:11;98173.83;;;16.46;100.00
58223;BME280;44020;50.890;15.796;2023-09-30T05:16:38;98181.23;;;16.35;100.00
58223;BME280;44020;50.890;15.796;2023-09-30T05:19:05;98185.46;;;16.29;100.00
58223;BME280;44020;50.890;15.796;2023-09-30T05:21:35;98194.59;;;16.19;100.00
58223;BME280;44020;50.890;15.796;2023-09-30T05:24:04;98199.20;;;16.11;100.00
58223;BME280;44020;50.890;15.796;2023-09-30T05:26:52;98197.38;;;15.96;100.00
58223;BME280;44020;50.890;15.796;2023-09-30T05:29:22;98202.98;;;15.90;100.00
58223;BME280;44020;50.890;15.796;2023-09-30T05:31:49;98205.65;;;15.84;100.00
58223;BME280;44020;50.890;15.796;2023-09-30T05:34:16;98205.42;;;15.84;100.00
58223;BME280;44020;50.890;15.796;2023-09-30T05:36:44;98211.20;;;15.82;100.00
58223;BME280;44020;50.890;15.796;2023-09-30T05:39:11;98217.54;;;15.72;100.00
58223;BME280;44020;50.890;15.796;2023-09-30T05:41:40;98223.71;;;15.64;100.00
58223;BME280;44020;50.890;15.796;2023-09-30T05:44:07;98231.65;;;15.57;100.00
58223;BME280;44020;50.890;15.796;2023-09-30T05:46:35;98237.95;;;15.46;100.00
58223;BME280;44020;50.890;15.796;2023-09-30T05:49:02;98242.59;;;15.37;100.00
58223;BME280;44020;50.890;15.796;2023-09-30T05:51:36;98249.30;;;15.34;100.00
58223;BME280;44020;50.890;15.796;2023-09-30T05:54:03;98248.02;;;15.30;100.00
58223;BME280;44020;50.890;15.796;2023-09-30T05:56:31;98256.11;;;15.23;100.00
58223;BME280;44020;50.890;15.796;2023-09-30T05:58:59;98262.14;;;15.12;100.00
58223;BME280;44020;50.890;15.796;2023-09-30T06:01:26;98269.95;;;15.04;100.00
58223;BME280;44020;50.890;15.796;2023-09-30T06:03:54;98273.64;;;14.94;100.00
58223;BME280;44020;50.890;15.796;2023-09-30T06:06:23;98276.23;;;14.88;100.00
58223;BME280;44020;50.890;15.796;2023-09-30T06:08:51;98283.34;;;14.82;100.00
58223;BME280;44020;50.890;15.796;2023-09-30T06:11:22;98289.94;;;14.73;100.00
58223;BME280;44020;50.890;15.796;2023-09-30T06:13:52;98298.13;;;14.62;100.00
58223;BME280;44020;50.890;15.796;2023-09-30T06:16:20;98303.48;;;14.54;100.00
58223;BME280;44020;50.890;15.796;2023-09-30T06:18:47;98308.02;;;14.42;100.00
58223;BME280;44020;50.890;15.796;2023-09-30T06:21:16;98312.06;;;14.38;100.00
58223;BME280;44020;50.890;15.796;2023-09-30T06:23:48;98318.77;;;14.32;100.00
58223;BME280;44020;50.890;15.796;2023-09-30T06:26:15;98322.23;;;14.31;100.00
58223;BME280;44020;50.890;15.796;2023-09-30T06:28:44;98326.06;;;14.28;100.00
58223;BME280;44020;50.890;15.796;2023-09-30T06:31:12;98332.54;;;14.23;100.00
58223;BME280;44020;50.890;15.796;2023-09-30T06:33:39;98336.17;;;14.17;100.00
58223;BME280;44020;50.890;15.796;2023-09-30T06:36:10;98338.83;;;14.15;100.00
58223;BME280;44020;50.890;15.796;2023-09-30T06:38:38;98343.52;;;14.12;100.00
58223;BME280;44020;50.890;15.796;2023-09-30T06:41:05;98351.30;;;14.15;100.00
58223;BME280;44020;50.890;15.796;2023-09-30T06:43:32;98364.38;;;14.17;100.00
58223;BME280;44020;50.890;15.796;2023-09-30T06:46:05;98363.69;;;14.12;100.00
58223;BME280;44020;50.890;15.796;2023-09-30T06:48:34;98366.14;;;14.08;100.00
58223;BME280;44020;50.890;15.796;2023-09-30T06:51:02;98364.27;;;14.02;100.00
58223;BME280;44020;50.890;15.796;2023-09-30T06:53:29;98370.17;;;13.92;100.00
58223;BME280;44020;50.890;15.796;2023-09-30T06:55:57;98370.14;;;13.87;100.00
58223;BME280;44020;50.890;15.796;2023-09-30T06:58:24;98366.02;;;13.83;100.00
58223;BME280;44020;50.890;15.796;2023-09-30T07:00:52;98360.08;;;13.84;100.00
58223;BME280;44020;50.890;15.796;2023-09-30T07:03:20;98365.73;;;13.80;100.00
58223;BME280;44020;50.890;15.796;2023-09-30T07:05:47;98377.35;;;13.82;100.00
58223;BME280;44020;50.890;15.796;2023-09-30T07:08:17;98381.25;;;13.75;100.00
58223;BME280;44020;50.890;15.796;2023-09-30T07:10:45;98389.05;;;13.66;100.00
58223;BME280;44020;50.890;15.796;2023-09-30T07:13:19;98397.43;;;13.66;100.00
58223;BME280;44020;50.890;15.796;2023-09-30T07:15:47;98397.34;;;13.62;100.00
58223;BME280;44020;50.890;15.796;2023-09-30T07:18:14;98404.52;;;13.62;100.00
58223;BME280;44020;50.890;15.796;2023-09-30T07:20:42;98408.92;;;13.67;100.00
58223;BME280;44020;50.890;15.796;2023-09-30T07:23:09;98414.63;;;13.65;100.00
58223;BME280;44020;50.890;15.796;2023-09-30T07:25:36;98420.63;;;13.66;100.00
58223;BME280;44020;50.890;15.796;2023-09-30T07:28:03;98425.89;;;13.70;100.00
58223;BME280;44020;50.890;15.796;2023-09-30T07:30:30;98433.33;;;13.76;100.00
58223;BME280;44020;50.890;15.796;2023-09-30T07:32:58;98434.03;;;13.76;100.00
58223;BME280;44020;50.890;15.796;2023-09-30T07:35:25;98432.20;;;13.81;100.00
58223;BME280;44020;50.890;15.796;2023-09-30T07:37:52;98431.67;;;13.84;100.00
58223;BME280;44020;50.890;15.796;2023-09-30T07:40:20;98440.39;;;13.87;100.00
58223;BME280;44020;50.890;15.796;2023-09-30T07:42:48;98438.94;;;13.90;100.00
58223;BME280;44020;50.890;15.796;2023-09-30T07:45:16;98439.61;;;13.95;100.00
58223;BME280;44020;50.890;15.796;2023-09-30T07:47:44;98439.27;;;13.98;100.00
58223;BME280;44020;50.890;15.796;2023-09-30T07:50:13;98437.33;;;14.00;100.00
58223;BME280;44020;50.890;15.796;2023-09-30T07:52:40;98438.55;;;14.02;100.00
58223;BME280;44020;50.890;15.796;2023-09-30T07:55:09;98442.97;;;14.06;100.00
58223;BME280;44020;50.890;15.796;2023-09-30T07:57:38;98452.93;;;14.09;100.00
58223;BME280;44020;50.890;15.796;2023-09-30T08:00:06;98459.42;;;14.15;99.93
58223;BME280;44020;50.890;15.796;2023-09-30T08:02:36;98464.02;;;14.19;99.67
58223;BME280;44020;50.890;15.796;2023-09-30T08:05:05;98464.08;;;14.25;99.99
58223;BME280;44020;50.890;15.796;2023-09-30T08:07:34;98470.39;;;14.34;98.89
58223;BME280;44020;50.890;15.796;2023-09-30T08:10:02;98470.45;;;14.33;97.07
58223;BME280;44020;50.890;15.796;2023-09-30T08:12:33;98468.40;;;14.27;96.74
58223;BME280;44020;50.890;15.796;2023-09-30T08:15:01;98469.11;;;14.25;96.89
58223;BME280;44020;50.890;15.796;2023-09-30T08:17:30;98469.31;;;14.24;96.84
58223;BME280;44020;50.890;15.796;2023-09-30T08:19:57;98476.30;;;14.26;96.90
58223;BME280;44020;50.890;15.796;2023-09-30T08:22:25;98483.11;;;14.26;96.64
58223;BME280;44020;50.890;15.796;2023-09-30T08:24:54;98493.36;;;14.23;96.35
58223;BME280;44020;50.890;15.796;2023-09-30T08:27:22;98499.35;;;14.19;95.64
58223;BME280;44020;50.890;15.796;2023-09-30T08:29:51;98495.30;;;14.13;95.22
58223;BME280;44020;50.890;15.796;2023-09-30T08:32:18;98499.39;;;14.11;95.46
58223;BME280;44020;50.890;15.796;2023-09-30T08:34:46;98504.94;;;14.11;95.95
58223;BME280;44020;50.890;15.796;2023-09-30T08:37:13;98505.65;;;14.14;95.35
58223;BME280;44020;50.890;15.796;2023-09-30T08:39:40;98516.11;;;14.12;94.66
58223;BME280;44020;50.890;15.796;2023-09-30T08:42:09;98518.81;;;14.12;94.18
58223;BME280;44020;50.890;15.796;2023-09-30T08:44:40;98509.07;;;14.16;91.74
58223;BME280;44020;50.890;15.796;2023-09-30T08:47:08;98505.99;;;14.14;92.10
58223;BME280;44020;50.890;15.796;2023-09-30T08:49:41;98505.42;;;14.19;93.23
58223;BME280;44020;50.890;15.796;2023-09-30T08:52:10;98504.86;;;14.32;93.40
58223;BME280;44020;50.890;15.796;2023-09-30T08:54:37;98502.55;;;14.39;92.85
58223;BME280;44020;50.890;15.796;2023-09-30T08:57:07;98505.83;;;14.41;92.78
58223;BME280;44020;50.890;15.796;2023-09-30T08:59:37;98507.24;;;14.41;91.35
58223;BME280;44020;50.890;15.796;2023-09-30T09:02:11;98500.29;;;14.36;91.84
58223;BME280;44020;50.890;15.796;2023-09-30T09:04:38;98503.27;;;14.39;92.11
58223;BME280;44020;50.890;15.796;2023-09-30T09:07:05;98501.95;;;14.40;90.58
58223;BME280;44020;50.890;15.796;2023-09-30T09:09:35;98495.71;;;14.37;88.61
58223;BME280;44020;50.890;15.796;2023-09-30T09:12:03;98490.34;;;14.35;88.34
58223;BME280;44020;50.890;15.796;2023-09-30T09:14:41;98491.83;;;14.37;88.64
58223;BME280;44020;50.890;15.796;2023-09-30T09:17:17;98492.23;;;14.44;88.97
58223;BME280;44020;50.890;15.796;2023-09-30T09:19:59;98487.30;;;14.48;88.47
58223;BME280;44020;50.890;15.796;2023-09-30T09:22:43;98485.81;;;14.48;87.51
58223;BME280;44020;50.890;15.796;2023-09-30T09:25:11;98480.85;;;14.48;86.60
58223;BME280;44020;50.890;15.796;2023-09-30T09:27:39;98484.02;;;14.46;86.28
58223;BME280;44020;50.890;15.796;2023-09-30T09:30:24;98486.35;;;14.48;87.15
58223;BME280;44020;50.890;15.796;2023-09-30T09:33:02;98488.48;;;14.56;86.95
58223;BME280;44020;50.890;15.796;2023-09-30T09:35:31;98486.91;;;14.60;87.26
58223;BME280;44020;50.890;15.796;2023-09-30T09:38:04;98492.64;;;14.70;86.94
58223;BME280;44020;50.890;15.796;2023-09-30T09:40:36;98491.52;;;14.82;87.38
58223;BME280;44020;50.890;15.796;2023-09-30T09:43:07;98495.18;;;14.93;87.05
58223;BME280;44020;50.890;15.796;2023-09-30T09:45:36;98490.64;;;15.01;86.37
58223;BME280;44020;50.890;15.796;2023-09-30T09:48:09;98495.31;;;15.08;84.16
58223;BME280;44020;50.890;15.796;2023-09-30T09:50:36;98492.01;;;15.07;84.38
58223;BME280;44020;50.890;15.796;2023-09-30T09:53:05;98499.33;;;15.10;82.22
58223;BME280;44020;50.890;15.796;2023-09-30T09:55:32;98510.55;;;15.03;82.49
58223;BME280;44020;50.890;15.796;2023-09-30T09:58:02;98517.62;;;15.02;82.65
58223;BME280;44020;50.890;15.796;2023-09-30T10:00:30;98518.50;;;14.97;82.07
58223;BME280;44020;50.890;15.796;2023-09-30T10:02:58;98516.33;;;14.97;81.63
58223;BME280;44020;50.890;15.796;2023-09-30T10:05:25;98508.86;;;14.97;81.46
58223;BME280;44020;50.890;15.796;2023-09-30T10:08:07;98499.28;;;14.98;81.30
58223;BME280;44020;50.890;15.796;2023-09-30T10:10:36;98488.86;;;15.01;81.10
58223;BME280;44020;50.890;15.796;2023-09-30T10:13:06;98495.36;;;15.05;81.08
58223;BME280;44020;50.890;15.796;2023-09-30T10:15:34;98491.73;;;15.06;80.58
58223;BME280;44020;50.890;15.796;2023-09-30T10:20:34;98508.17;;;15.17;81.15
58223;BME280;44020;50.890;15.796;2023-09-30T10:23:18;98514.88;;;15.22;81.05
58223;BME280;44020;50.890;15.796;2023-09-30T10:25:48;98514.36;;;15.21;79.83
58223;BME280;44020;50.890;15.796;2023-09-30T10:31:08;98517.96;;;15.16;78.33
58223;BME280;44020;50.890;15.796;2023-09-30T10:33:37;98519.76;;;15.14;77.63
58223;BME280;44020;50.890;15.796;2023-09-30T10:36:34;98518.48;;;15.07;78.31
58223;BME280;44020;50.890;15.796;2023-09-30T10:39:02;98515.54;;;15.10;78.78
58223;BME280;44020;50.890;15.796;2023-09-30T10:49:52;98503.05;;;15.14;79.28
58223;BME280;44020;50.890;15.796;2023-09-30T10:52:29;98507.63;;;15.15;79.76
58223;BME280;44020;50.890;15.796;2023-09-30T10:55:02;98506.05;;;15.20;80.11
58223;BME280;44020;50.890;15.796;2023-09-30T10:57:31;98502.29;;;15.27;80.28
58223;BME280;44020;50.890;15.796;2023-09-30T11:00:12;98503.27;;;15.35;80.16
58223;BME280;44020;50.890;15.796;2023-09-30T11:02:50;98512.17;;;15.43;80.01
58223;BME280;44020;50.890;15.796;2023-09-30T11:05:19;98512.98;;;15.51;80.17
58223;BME280;44020;50.890;15.796;2023-09-30T11:07:52;98521.33;;;15.56;79.81
58223;BME280;44020;50.890;15.796;2023-09-30T11:10:20;98527.00;;;15.61;79.68
58223;BME280;44020;50.890;15.796;2023-09-30T11:12:56;98525.38;;;15.69;78.89
58223;BME280;44020;50.890;15.796;2023-09-30T11:15:24;98518.63;;;15.71;76.77
58223;BME280;44020;50.890;15.796;2023-09-30T11:17:52;98521.48;;;15.71;77.26
58223;BME280;44020;50.890;15.796;2023-09-30T11:20:19;98515.13;;;15.75;76.12
58223;BME280;44020;50.890;15.796;2023-09-30T11:22:48;98509.84;;;15.71;75.39
58223;BME280;44020;50.890;15.796;2023-09-30T11:25:17;98516.76;;;15.67;73.59
58223;BME280;44020;50.890;15.796;2023-09-30T11:27:45;98518.08;;;15.59;74.99
58223;BME280;44020;50.890;15.796;2023-09-30T11:30:13;98512.71;;;15.63;75.40
58223;BME280;44020;50.890;15.796;2023-09-30T11:32:41;98510.33;;;15.71;75.61
58223;BME280;44020;50.890;15.796;2023-09-30T11:35:10;98507.61;;;15.79;75.91
58223;BME280;44020;50.890;15.796;2023-09-30T11:37:48;98505.42;;;15.93;75.89
58223;BME280;44020;50.890;15.796;2023-09-30T11:40:15;98498.57;;;16.07;75.42
58223;BME280;44020;50.890;15.796;2023-09-30T11:43:09;98508.02;;;16.21;73.84
58223;BME280;44020;50.890;15.796;2023-09-30T11:45:41;98510.11;;;16.28;73.56
58223;BME280;44020;50.890;15.796;2023-09-30T11:48:18;98509.64;;;16.34;73.09
58223;BME280;44020;50.890;15.796;2023-09-30T11:50:49;98511.64;;;16.34;72.68
58223;BME280;44020;50.890;15.796;2023-09-30T11:53:17;98512.03;;;16.29;73.13
58223;BME280;44020;50.890;15.796;2023-09-30T11:55:45;98508.44;;;16.29;73.12
58223;BME280;44020;50.890;15.796;2023-09-30T11:58:13;98504.80;;;16.36;72.88
58223;BME280;44020;50.890;15.796;2023-09-30T12:00:45;98505.23;;;16.44;71.72
58223;BME280;44020;50.890;15.796;2023-09-30T12:03:12;98503.98;;;16.42;69.68
58223;BME280;44020;50.890;15.796;2023-09-30T12:05:40;98503.55;;;16.36;70.23
58223;BME280;44020;50.890;15.796;2023-09-30T12:08:08;98503.01;;;16.40;70.49
58223;BME280;44020;50.890;15.796;2023-09-30T12:10:35;98500.64;;;16.50;71.06
58223;BME280;44020;50.890;15.796;2023-09-30T12:13:02;98500.83;;;16.65;70.51
58223;BME280;44020;50.890;15.796;2023-09-30T12:15:30;98496.08;;;16.80;69.88
58223;BME280;44020;50.890;15.796;2023-09-30T12:17:57;98497.17;;;16.90;69.69
58223;BME280;44020;50.890;15.796;2023-09-30T12:20:24;98495.21;;;16.99;69.30
58223;BME280;44020;50.890;15.796;2023-09-30T12:22:52;98494.66;;;17.03;68.69
58223;BME280;44020;50.890;15.796;2023-09-30T12:25:20;98489.99;;;17.10;69.38
58223;BME280;44020;50.890;15.796;2023-09-30T12:27:51;98490.05;;;17.19;69.66
58223;BME280;44020;50.890;15.796;2023-09-30T12:30:18;98485.38;;;17.36;69.86
58223;BME280;44020;50.890;15.796;2023-09-30T12:32:47;98484.73;;;17.52;68.41
58223;BME280;44020;50.890;15.796;2023-09-30T12:35:14;98485.18;;;17.65;67.01
58223;BME280;44020;50.890;15.796;2023-09-30T12:37:41;98485.29;;;18.04;67.34
58223;BME280;44020;50.890;15.796;2023-09-30T12:40:10;98487.13;;;18.61;62.01
58223;BME280;44020;50.890;15.796;2023-09-30T12:42:38;98481.14;;;18.80;59.71
58223;BME280;44020;50.890;15.796;2023-09-30T12:45:06;98485.36;;;18.71;60.94
58223;BME280;44020;50.890;15.796;2023-09-30T12:47:33;98484.14;;;18.57;61.97
58223;BME280;44020;50.890;15.796;2023-09-30T12:50:00;98489.48;;;18.51;60.89
58223;BME280;44020;50.890;15.796;2023-09-30T12:52:28;98489.60;;;18.36;61.61
58223;BME280;44020;50.890;15.796;2023-09-30T12:54:59;98490.09;;;18.33;62.28
58223;BME280;44020;50.890;15.796;2023-09-30T12:57:29;98490.99;;;18.31;61.22
58223;BME280;44020;50.890;15.796;2023-09-30T12:59:57;98484.53;;;18.22;61.23
58223;BME280;44020;50.890;15.796;2023-09-30T13:02:24;98484.19;;;18.20;60.78
58223;BME280;44020;50.890;15.796;2023-09-30T13:04:51;98484.23;;;18.02;58.14
58223;BME280;44020;50.890;15.796;2023-09-30T13:07:18;98482.66;;;17.82;59.35
58223;BME280;44020;50.890;15.796;2023-09-30T13:09:45;98476.62;;;17.73;59.74
58223;BME280;44020;50.890;15.796;2023-09-30T13:12:13;98474.81;;;17.74;60.56